Time;durP1;ratioP1;P1;durP2;ratioP2;P2;SDS_P1;SDS_P2;PMS_P1;PMS_P2;Temp;Humidity;BMP_temperature;BMP_pressure;BME280_temperature;BME280_humidity;BME280_pressure;Samples;Min_cycle;Max_cycle;Signal;HPM_P1;HPM_P2
2023/03/27 00:01:23;;;;;;;0.83;0.70;;;;;;;7.59;96.49;97618.91;5008840;28;103720;-57
2023/03/27 00:03:52;;;;;;;1.00;0.90;;;;;;;7.77;97.22;97610.56;5008849;28;104461;-57
2023/03/27 00:06:23;;;;;;;2.00;0.83;;;;;;;7.80;97.31;97616.41;5008647;28;103041;-57
2023/03/27 00:08:53;;;;;;;1.73;0.70;;;;;;;7.90;96.40;97613.88;5006758;28;103069;-57
2023/03/27 00:11:24;;;;;;;1.00;0.80;;;;;;;7.88;95.90;97613.19;4991794;28;103700;-57
2023/03/27 00:13:53;;;;;;;0.80;0.70;;;;;;;7.78;96.10;97623.56;5009913;28;103247;-57
2023/03/27 00:16:23;;;;;;;1.27;1.00;;;;;;;7.50;96.93;97630.13;5008216;28;103218;-58
2023/03/27 00:18:53;;;;;;;0.90;0.90;;;;;;;7.59;97.53;97637.31;5013355;28;103321;-57
2023/03/27 00:21:21;;;;;;;0.87;0.87;;;;;;;7.65;95.46;97643.88;5011556;28;103048;-57
2023/03/27 00:23:50;;;;;;;0.60;0.60;;;;;;;7.57;96.21;97647.13;5008190;28;103226;-57
2023/03/27 00:26:20;;;;;;;0.70;0.70;;;;;;;7.47;96.51;97653.16;5012726;28;103016;-57
2023/03/27 00:28:48;;;;;;;0.70;0.70;;;;;;;7.48;96.71;97653.06;5004703;28;102661;-57
2023/03/27 00:31:17;;;;;;;1.00;1.00;;;;;;;7.47;98.04;97656.63;5010831;28;102657;-57
2023/03/27 00:33:45;;;;;;;1.13;1.00;;;;;;;7.51;96.87;97668.59;5010498;28;103237;-57
2023/03/27 00:36:14;;;;;;;0.80;0.77;;;;;;;7.65;95.07;97669.31;5012106;27;103409;-57
2023/03/27 00:38:44;;;;;;;0.93;0.87;;;;;;;7.54;94.92;97678.88;4996113;28;102989;-57
2023/03/27 00:41:12;;;;;;;2.47;0.90;;;;;;;7.51;95.19;97692.25;5013299;27;102772;-58
2023/03/27 00:43:43;;;;;;;0.80;0.80;;;;;;;7.45;95.08;97697.97;5011497;28;103164;-57
2023/03/27 00:46:31;;;;;;;0.73;0.73;;;;;;;7.18;92.63;97707.06;5012692;27;103408;-57
2023/03/27 00:49:02;;;;;;;1.00;0.67;;;;;;;7.11;92.02;97722.44;5004512;28;102827;-57
2023/03/27 00:51:32;;;;;;;1.13;0.80;;;;;;;7.30;91.79;97711.41;5012573;28;104185;-57
2023/03/27 00:54:01;;;;;;;0.50;0.50;;;;;;;6.84;91.37;97727.09;5004788;28;103203;-58
2023/03/27 00:56:29;;;;;;;0.90;0.40;;;;;;;6.85;90.05;97726.13;5011625;28;103180;-57
2023/03/27 00:59:02;;;;;;;0.60;0.60;;;;;;;6.82;91.24;97731.63;4993224;28;102678;-57
2023/03/27 01:01:31;;;;;;;0.93;0.50;;;;;;;6.79;91.84;97722.16;5009669;28;102676;-58
2023/03/27 01:04:04;;;;;;;1.17;0.60;;;;;;;7.02;92.55;97733.63;4995518;28;104246;-58
2023/03/27 01:06:33;;;;;;;0.50;0.50;;;;;;;6.89;92.45;97738.94;5007737;28;103333;-57
2023/03/27 01:09:03;;;;;;;2.67;0.67;;;;;;;6.68;93.38;97739.66;5009832;28;102927;-58
2023/03/27 01:11:42;;;;;;;1.53;0.70;;;;;;;6.86;93.35;97752.28;4996302;28;102823;-57
2023/03/27 01:14:25;;;;;;;0.70;0.70;;;;;;;6.72;93.26;97751.59;4995529;28;103351;-58
2023/03/27 01:17:07;;;;;;;0.80;0.80;;;;;;;6.57;93.31;97761.38;5011915;28;103359;-58
2023/03/27 01:19:54;;;;;;;0.80;0.80;;;;;;;6.73;93.72;97764.63;5013454;28;102750;-57
2023/03/27 01:22:55;;;;;;;0.80;0.80;;;;;;;6.86;93.47;97768.03;4993354;28;102783;-58
2023/03/27 01:26:08;;;;;;;0.90;0.90;;;;;;;6.84;93.33;97766.47;5011260;28;103419;-58
2023/03/27 01:28:48;;;;;;;0.80;0.80;;;;;;;6.63;92.69;97783.72;4976126;27;104487;-58
2023/03/27 01:31:33;;;;;;;1.43;0.90;;;;;;;6.39;93.61;97781.91;4993402;28;102648;-58
2023/03/27 01:34:26;;;;;;;1.07;0.97;;;;;;;6.35;93.52;97788.31;5011332;28;103989;-57
2023/03/27 01:37:24;;;;;;;0.83;0.83;;;;;;;6.45;93.63;97801.63;4992830;28;102998;-58
2023/03/27 01:40:00;;;;;;;1.63;0.90;;;;;;;6.54;92.54;97808.84;5004014;28;103806;-58
2023/03/27 01:42:35;;;;;;;1.00;1.00;;;;;;;6.37;92.58;97802.13;5011890;28;102643;-58
2023/03/27 01:45:08;;;;;;;1.00;0.90;;;;;;;6.21;92.32;97809.41;4991317;28;102743;-58
2023/03/27 01:47:44;;;;;;;1.57;1.20;;;;;;;6.38;94.05;97810.84;5013881;27;103229;-58
2023/03/27 01:50:21;;;;;;;1.97;1.00;;;;;;;6.06;93.98;97825.34;5017959;28;103034;-58
2023/03/27 01:52:56;;;;;;;0.97;0.90;;;;;;;6.11;94.45;97829.34;5013583;27;102860;-58
2023/03/27 01:55:30;;;;;;;2.27;1.07;;;;;;;5.92;94.17;97836.78;5008069;27;104425;-58
2023/03/27 01:58:02;;;;;;;2.10;1.10;;;;;;;5.92;95.19;97847.25;4997379;28;102945;-58
2023/03/27 02:00:35;;;;;;;0.70;0.70;;;;;;;5.78;93.36;97863.84;4996033;28;103333;-58
2023/03/27 02:03:26;;;;;;;1.20;1.10;;;;;;;5.83;94.29;97851.31;4995892;28;102705;-58
2023/03/27 02:06:01;;;;;;;1.20;1.10;;;;;;;5.95;93.82;97864.56;4993556;28;102845;-58
2023/03/27 02:08:36;;;;;;;1.30;1.13;;;;;;;6.01;93.16;97870.22;5013256;28;104125;-58
2023/03/27 02:11:28;;;;;;;1.03;1.00;;;;;;;5.79;94.49;97880.41;4994095;28;103325;-58
2023/03/27 02:14:00;;;;;;;2.30;1.07;;;;;;;5.91;94.73;97899.78;5003336;28;102657;-58
2023/03/27 02:16:33;;;;;;;1.63;1.30;;;;;;;6.17;94.80;97885.78;4994852;28;102947;-58
2023/03/27 02:19:10;;;;;;;1.37;1.20;;;;;;;6.19;93.64;97900.47;4995920;28;104197;-58
2023/03/27 02:21:40;;;;;;;1.43;1.30;;;;;;;6.40;93.04;97906.88;4992854;28;104121;-58
2023/03/27 02:24:09;;;;;;;3.37;2.07;;;;;;;6.12;92.92;97921.97;4996965;28;103061;-58
2023/03/27 02:26:40;;;;;;;3.23;2.60;;;;;;;5.90;93.14;97919.91;4989770;28;104489;-58
2023/03/27 02:29:27;;;;;;;6.30;3.30;;;;;;;5.83;92.46;97940.41;4999047;28;103218;-58
2023/03/27 02:32:07;;;;;;;7.73;2.97;;;;;;;6.01;93.00;97941.00;5013923;28;104928;-58
2023/03/27 02:34:55;;;;;;;6.93;3.20;;;;;;;5.87;92.85;97946.31;4987577;28;103547;-58
2023/03/27 02:37:36;;;;;;;6.63;3.60;;;;;;;5.72;90.99;97963.88;5000628;28;102833;-58
2023/03/27 02:40:40;;;;;;;7.80;3.50;;;;;;;5.69;91.30;97968.47;5008830;28;104070;-58
2023/03/27 02:43:57;;;;;;;9.40;4.20;;;;;;;5.71;90.64;97971.81;5018458;28;103166;-57
2023/03/27 02:46:53;;;;;;;6.80;3.60;;;;;;;5.72;89.81;97978.75;4999523;28;103248;-58
2023/03/27 02:49:27;;;;;;;6.80;3.47;;;;;;;5.59;90.48;97983.06;4999005;28;102737;-58
2023/03/27 02:52:00;;;;;;;12.63;4.03;;;;;;;5.33;88.94;98003.06;5010735;28;103338;-58
2023/03/27 02:54:34;;;;;;;8.30;4.60;;;;;;;5.17;88.85;98000.53;5010851;28;103288;-58
2023/03/27 02:57:08;;;;;;;9.13;4.13;;;;;;;5.39;89.73;98009.69;4997980;28;103454;-57
2023/03/27 03:00:04;;;;;;;8.63;3.73;;;;;;;5.38;89.17;98023.72;4979426;27;102760;-58
2023/03/27 03:02:39;;;;;;;8.17;3.80;;;;;;;4.93;89.53;98030.00;4997343;28;103851;-57
2023/03/27 03:05:16;;;;;;;8.67;3.60;;;;;;;5.08;89.94;98037.75;5007159;28;103375;-58
2023/03/27 03:07:45;;;;;;;11.67;3.93;;;;;;;4.96;90.76;98045.50;5014261;28;102681;-58
2023/03/27 03:10:14;;;;;;;9.07;3.83;;;;;;;4.84;90.99;98044.47;5000020;28;102796;-57
2023/03/27 03:12:43;;;;;;;7.77;3.50;;;;;;;5.21;90.89;98057.03;5013025;28;103232;-58
2023/03/27 03:15:12;;;;;;;8.47;3.50;;;;;;;5.06;89.58;98072.81;4994966;28;103254;-58
2023/03/27 03:17:41;;;;;;;9.77;4.33;;;;;;;4.96;88.98;98076.94;5012431;28;102796;-58
2023/03/27 03:20:15;;;;;;;10.30;3.70;;;;;;;4.86;88.88;98070.53;5015741;28;104029;-58
2023/03/27 03:22:43;;;;;;;8.97;4.10;;;;;;;5.05;89.59;98076.38;5012520;28;103110;-58
2023/03/27 03:25:16;;;;;;;12.23;3.67;;;;;;;5.12;89.63;98089.00;4994112;28;103243;-58
2023/03/27 03:27:44;;;;;;;10.10;4.03;;;;;;;5.05;89.75;98092.09;4997883;28;102737;-58
2023/03/27 03:30:14;;;;;;;7.57;3.90;;;;;;;5.06;88.65;98099.84;5018360;28;103730;-58
2023/03/27 03:32:58;;;;;;;9.00;3.20;;;;;;;4.79;88.14;98111.94;4996315;28;104779;-58
2023/03/27 03:35:27;;;;;;;6.63;3.60;;;;;;;4.82;89.48;98111.78;5010684;28;103924;-57
2023/03/27 03:37:58;;;;;;;9.37;3.80;;;;;;;4.75;88.50;98120.91;4995146;28;103322;-58
2023/03/27 03:40:27;;;;;;;5.00;3.20;;;;;;;4.72;88.15;98121.06;5012509;28;104139;-58
2023/03/27 03:42:57;;;;;;;11.67;4.73;;;;;;;4.78;88.29;98128.56;5009217;28;103150;-58
2023/03/27 03:45:30;;;;;;;12.87;3.67;;;;;;;4.99;88.27;98132.56;4999097;28;104850;-57
2023/03/27 03:47:58;;;;;;;14.83;4.33;;;;;;;4.74;88.26;98149.78;5008058;28;102962;-57
2023/03/27 03:50:26;;;;;;;9.43;3.43;;;;;;;4.88;87.91;98153.28;4994403;28;104509;-57
2023/03/27 03:52:54;;;;;;;6.03;3.60;;;;;;;4.87;86.92;98171.69;5007814;27;103257;-58
2023/03/27 03:55:24;;;;;;;10.33;3.53;;;;;;;4.56;87.13;98172.59;4994836;28;103268;-58
2023/03/27 03:57:52;;;;;;;10.77;3.00;;;;;;;4.80;85.21;98175.59;4991616;28;102770;-58
2023/03/27 04:00:25;;;;;;;9.00;3.53;;;;;;;4.43;86.32;98192.53;4992969;27;102763;-58
2023/03/27 04:02:57;;;;;;;9.73;3.60;;;;;;;4.46;86.35;98194.97;5011120;28;105025;-57
2023/03/27 04:05:25;;;;;;;8.23;3.60;;;;;;;4.22;87.83;98206.78;5011494;28;103266;-58
2023/03/27 04:07:58;;;;;;;10.10;3.63;;;;;;;4.27;89.56;98207.34;4992535;28;102796;-58
2023/03/27 04:10:26;;;;;;;9.23;3.70;;;;;;;4.52;89.13;98223.41;5013660;28;102640;-57
2023/03/27 04:12:57;;;;;;;9.50;3.40;;;;;;;4.63;87.96;98223.66;4993623;28;103776;-58
2023/03/27 04:15:35;;;;;;;9.67;3.03;;;;;;;4.44;88.17;98236.03;4990469;28;105151;-58
2023/03/27 04:18:33;;;;;;;15.60;4.47;;;;;;;4.31;87.00;98248.13;5001038;28;103341;-58
2023/03/27 04:21:13;;;;;;;9.47;2.33;;;;;;;3.95;87.17;98259.63;5012916;28;102709;-58
2023/03/27 04:23:42;;;;;;;10.53;2.83;;;;;;;4.14;85.73;98253.41;4989599;28;104207;-58
2023/03/27 04:26:12;;;;;;;8.40;2.93;;;;;;;4.29;85.31;98265.66;4996609;28;103231;-58
2023/03/27 04:29:10;;;;;;;8.97;2.73;;;;;;;4.27;86.67;98272.72;4977261;28;103050;-58
2023/03/27 04:31:57;;;;;;;5.50;2.63;;;;;;;4.17;84.97;98275.00;5006329;28;102653;-58
2023/03/27 04:34:42;;;;;;;11.70;2.97;;;;;;;4.25;84.07;98283.28;5005757;28;104096;-58
2023/03/27 04:37:29;;;;;;;7.23;2.33;;;;;;;4.28;84.32;98288.34;5008671;28;103294;-58
2023/03/27 04:40:16;;;;;;;6.93;2.43;;;;;;;4.43;84.10;98291.94;4992649;28;102766;-58
2023/03/27 04:42:45;;;;;;;9.80;3.40;;;;;;;4.37;83.71;98302.72;4995987;28;104207;-57
2023/03/27 04:45:16;;;;;;;6.93;2.33;;;;;;;4.13;82.79;98309.25;5013467;28;103281;-58
2023/03/27 04:47:47;;;;;;;8.73;3.00;;;;;;;4.17;81.67;98310.75;5006171;28;103239;-58
2023/03/27 04:50:18;;;;;;;9.77;2.07;;;;;;;4.01;81.93;98329.03;4996160;28;103984;-58
2023/03/27 04:52:46;;;;;;;7.00;2.40;;;;;;;4.31;81.29;98335.28;4997917;28;102748;-58
2023/03/27 04:55:18;;;;;;;10.37;2.77;;;;;;;3.85;81.67;98336.78;4992142;28;103705;-58
2023/03/27 04:57:49;;;;;;;9.47;2.30;;;;;;;3.97;80.78;98346.63;5011658;27;103388;-58
2023/03/27 05:00:19;;;;;;;7.17;2.13;;;;;;;4.13;81.50;98345.84;4997335;28;102679;-58
2023/03/27 05:02:48;;;;;;;10.50;2.27;;;;;;;3.64;80.93;98363.16;5007724;28;102745;-58
2023/03/27 05:05:24;;;;;;;7.23;2.37;;;;;;;3.75;81.39;98361.72;4994195;28;103935;-60
2023/03/27 05:07:53;;;;;;;7.40;2.17;;;;;;;4.13;81.47;98372.00;5009802;27;103001;-57
2023/03/27 05:10:24;;;;;;;9.50;1.90;;;;;;;3.79;79.86;98384.13;4999448;28;102808;-58
2023/03/27 05:12:54;;;;;;;9.40;2.30;;;;;;;3.90;81.39;98381.84;4994800;28;104231;-58
2023/03/27 05:15:31;;;;;;;7.73;2.10;;;;;;;3.93;79.43;98394.75;5009696;28;104107;-58
2023/03/27 05:18:01;;;;;;;5.97;2.07;;;;;;;3.63;80.34;98404.13;4997274;28;103262;-57
2023/03/27 05:20:32;;;;;;;10.07;2.13;;;;;;;3.57;79.98;98424.47;4994097;28;102826;-58
2023/03/27 05:23:06;;;;;;;9.43;1.53;;;;;;;3.86;79.42;98426.50;4996450;28;104080;-57
2023/03/27 05:25:34;;;;;;;6.37;1.70;;;;;;;3.85;79.26;98430.88;4996501;28;103245;-57
2023/03/27 05:28:06;;;;;;;7.73;1.90;;;;;;;3.75;79.49;98444.47;4996289;28;103544;-57
2023/03/27 05:30:35;;;;;;;7.97;2.07;;;;;;;4.04;77.71;98447.34;5015913;28;102663;-58
2023/03/27 05:33:16;;;;;;;7.33;1.73;;;;;;;4.25;76.80;98450.66;4998906;28;102643;-58
2023/03/27 05:35:48;;;;;;;8.40;2.10;;;;;;;3.92;78.45;98460.19;4999480;28;103478;-58
2023/03/27 05:38:17;;;;;;;9.07;2.20;;;;;;;3.90;77.49;98473.31;4972305;28;103171;-58
2023/03/27 05:41:06;;;;;;;6.80;1.90;;;;;;;3.52;78.26;98474.31;4984469;28;102866;-58
2023/03/27 05:43:39;;;;;;;8.03;1.83;;;;;;;3.33;78.58;98479.56;5000629;27;104919;-58
2023/03/27 05:46:07;;;;;;;5.63;1.73;;;;;;;3.75;77.93;98487.13;4992281;28;104159;-58
2023/03/27 05:48:37;;;;;;;6.77;2.17;;;;;;;3.63;76.87;98492.94;5000119;27;103241;-57
2023/03/27 05:51:08;;;;;;;8.37;2.17;;;;;;;3.53;77.59;98496.91;5008480;27;102704;-58
2023/03/27 05:53:38;;;;;;;4.27;1.67;;;;;;;3.48;77.29;98496.31;4989122;28;104187;-57
2023/03/27 05:56:17;;;;;;;5.90;2.33;;;;;;;3.61;77.81;98505.25;4995366;28;104444;-58
2023/03/27 05:58:54;;;;;;;6.07;2.33;;;;;;;3.59;77.12;98512.31;4993508;28;103231;-58
2023/03/27 06:01:24;;;;;;;5.77;1.83;;;;;;;3.61;77.16;98507.84;4992855;28;102736;-58
2023/03/27 06:03:55;;;;;;;5.70;2.13;;;;;;;3.39;78.12;98509.78;4998667;28;104628;-58
2023/03/27 06:06:45;;;;;;;3.17;1.40;;;;;;;3.62;78.29;98517.34;5008651;27;103913;-57
2023/03/27 06:09:13;;;;;;;9.20;1.87;;;;;;;3.80;76.58;98526.97;4997980;28;106782;-58
2023/03/27 06:11:49;;;;;;;4.47;1.60;;;;;;;3.83;76.02;98536.41;5016873;27;102603;-57
2023/03/27 06:14:19;;;;;;;5.83;1.80;;;;;;;3.44;76.68;98540.00;4996660;28;104025;-58
2023/03/27 06:17:05;;;;;;;6.77;1.73;;;;;;;3.70;76.63;98538.78;4999902;28;103195;-58
2023/03/27 06:19:48;;;;;;;7.53;1.50;;;;;;;3.93;75.95;98553.38;5009550;27;103186;-58
2023/03/27 06:22:18;;;;;;;5.23;2.00;;;;;;;3.89;75.83;98563.13;5015754;27;102671;-58
2023/03/27 06:24:48;;;;;;;7.13;1.80;;;;;;;3.94;76.68;98576.81;4995808;28;104046;-58
2023/03/27 06:27:20;;;;;;;7.73;1.90;;;;;;;3.87;74.79;98591.09;5008706;28;104220;-57
2023/03/27 06:29:48;;;;;;;6.97;2.33;;;;;;;3.90;76.18;98590.09;4999968;28;105177;-57
2023/03/27 06:32:16;;;;;;;4.20;1.70;;;;;;;3.47;74.59;98601.69;4993924;28;102713;-57
2023/03/27 06:34:50;;;;;;;6.30;2.00;;;;;;;3.85;75.81;98612.97;5014362;27;102729;-57
2023/03/27 06:37:39;;;;;;;6.33;1.53;;;;;;;4.18;75.58;98613.16;5015867;27;102990;-58
2023/03/27 06:40:09;;;;;;;7.90;2.23;;;;;;;3.90;75.65;98611.84;5018087;28;103061;-57
2023/03/27 06:42:38;;;;;;;8.33;2.03;;;;;;;3.85;75.50;98619.06;4994259;28;103156;-58
2023/03/27 06:45:34;;;;;;;11.03;2.07;;;;;;;3.66;75.00;98628.66;5000051;28;102700;-58
2023/03/27 06:48:28;;;;;;;7.20;2.40;;;;;;;3.72;74.57;98633.59;4987868;28;103171;-58
2023/03/27 06:50:57;;;;;;;8.07;1.73;;;;;;;3.87;74.55;98638.16;4996261;28;105581;-58
2023/03/27 06:53:28;;;;;;;6.80;2.40;;;;;;;3.97;74.80;98644.63;5015832;28;102769;-57
2023/03/27 06:56:03;;;;;;;6.60;1.97;;;;;;;4.27;75.87;98657.16;4998256;28;103818;-57
2023/03/27 06:58:51;;;;;;;9.43;1.97;;;;;;;4.17;73.56;98662.00;5006493;28;103684;-58
2023/03/27 07:01:21;;;;;;;12.33;3.27;;;;;;;4.59;73.84;98669.56;4999234;28;103273;-58
2023/03/27 07:03:58;;;;;;;3.50;1.27;;;;;;;4.64;72.72;98678.03;4998930;28;103697;-58
2023/03/27 07:06:47;;;;;;;10.70;2.27;;;;;;;4.38;73.83;98675.84;5009986;27;102893;-58
2023/03/27 07:09:17;;;;;;;9.47;2.60;;;;;;;4.07;73.15;98682.47;4995570;28;104153;-58
2023/03/27 07:11:56;;;;;;;9.10;2.13;;;;;;;4.42;73.39;98677.38;4996296;28;103229;-57
2023/03/27 07:14:24;;;;;;;8.40;2.00;;;;;;;4.41;73.50;98686.13;4994131;28;102815;-58
2023/03/27 07:16:52;;;;;;;5.37;2.37;;;;;;;4.76;74.01;98693.13;4993712;28;104040;-58
2023/03/27 07:19:23;;;;;;;10.27;3.37;;;;;;;4.27;74.09;98699.84;4997646;28;103334;-58
2023/03/27 07:22:01;;;;;;;4.53;1.77;;;;;;;4.72;71.50;98711.66;5009514;27;103304;-57
2023/03/27 07:24:33;;;;;;;3.63;1.67;;;;;;;4.62;71.42;98696.44;4992009;28;102749;-58
2023/03/27 07:27:02;;;;;;;8.50;1.97;;;;;;;4.42;71.00;98708.75;4991454;28;102746;-57
2023/03/27 07:29:32;;;;;;;7.03;2.00;;;;;;;4.77;71.36;98710.56;5004855;28;104091;-57
2023/03/27 07:32:01;;;;;;;5.77;2.10;;;;;;;4.44;71.30;98718.22;4996601;28;105069;-58
2023/03/27 07:34:39;;;;;;;6.37;1.90;;;;;;;4.75;71.48;98716.75;4994366;28;102777;-57
2023/03/27 07:37:28;;;;;;;6.43;1.93;;;;;;;4.77;70.08;98726.25;4975334;28;103963;-57
2023/03/27 07:40:25;;;;;;;7.73;1.73;;;;;;;4.66;68.26;98728.50;4983697;28;104038;-58
2023/03/27 07:43:29;;;;;;;5.20;2.40;;;;;;;4.53;69.31;98730.88;5011181;28;103151;-58
2023/03/27 07:46:00;;;;;;;5.50;1.83;;;;;;;4.56;69.90;98732.50;4987356;28;102963;-57
2023/03/27 07:48:29;;;;;;;7.57;2.83;;;;;;;4.44;70.15;98744.38;5010853;28;102688;-58
2023/03/27 07:50:58;;;;;;;10.43;3.13;;;;;;;4.64;68.37;98748.69;4992570;28;105700;-57
2023/03/27 07:53:42;;;;;;;5.83;2.47;;;;;;;4.61;70.27;98748.81;4994136;28;103321;-57
2023/03/27 07:56:18;;;;;;;5.30;2.63;;;;;;;4.63;67.46;98760.09;4992619;28;102693;-58
2023/03/27 07:58:47;;;;;;;6.70;2.20;;;;;;;4.41;69.06;98772.44;4999756;28;102679;-58
2023/03/27 08:01:20;;;;;;;4.37;2.07;;;;;;;4.55;68.69;98778.75;5012187;28;105150;-58
2023/03/27 08:03:49;;;;;;;4.90;1.97;;;;;;;4.88;67.12;98776.31;4996136;28;103052;-58
2023/03/27 08:06:19;;;;;;;9.80;3.27;;;;;;;4.59;68.02;98782.06;4991093;28;102987;-58
2023/03/27 08:08:48;;;;;;;6.23;1.80;;;;;;;4.64;66.96;98786.16;5007013;28;103940;-58
2023/03/27 08:11:19;;;;;;;4.27;2.13;;;;;;;5.48;67.67;98796.00;4997973;28;104996;-57
2023/03/27 08:13:58;;;;;;;4.70;1.73;;;;;;;5.04;64.45;98803.44;5013413;27;106291;-58
2023/03/27 08:16:28;;;;;;;3.17;1.43;;;;;;;6.18;63.51;98795.88;5012705;28;102662;-58
2023/03/27 08:18:59;;;;;;;6.30;1.90;;;;;;;6.05;62.65;98809.72;4993076;28;102843;-58
2023/03/27 08:21:32;;;;;;;6.07;1.70;;;;;;;5.94;62.14;98812.06;5011217;28;104279;-58
2023/03/27 08:24:01;;;;;;;5.77;1.60;;;;;;;6.07;60.93;98818.34;5012033;27;103392;-58
2023/03/27 08:26:37;;;;;;;3.67;1.57;;;;;;;6.28;61.02;98812.84;5005649;27;102771;-59
2023/03/27 08:29:11;;;;;;;9.13;1.90;;;;;;;6.81;58.69;98822.22;4995291;28;104020;-58
2023/03/27 08:31:39;;;;;;;6.70;1.40;;;;;;;7.96;57.60;98810.25;4992801;28;103362;-58
2023/03/27 08:34:09;;;;;;;5.50;1.50;;;;;;;7.49;57.37;98821.75;5009049;28;103337;-58
2023/03/27 08:36:51;;;;;;;6.83;1.83;;;;;;;9.10;55.17;98822.41;4996075;28;102836;-58
2023/03/27 08:39:21;;;;;;;7.67;1.90;;;;;;;8.11;56.32;98825.13;5005910;27;104153;-58
2023/03/27 08:41:59;;;;;;;5.70;1.80;;;;;;;8.15;55.10;98826.63;5007710;27;103213;-58
2023/03/27 08:44:37;;;;;;;6.43;1.60;;;;;;;8.28;55.35;98832.84;5011341;28;103342;-58
2023/03/27 08:47:16;;;;;;;5.23;1.63;;;;;;;7.34;56.04;98834.97;4993617;28;103121;-59
2023/03/27 08:49:57;;;;;;;6.40;1.40;;;;;;;7.17;55.68;98833.28;4995660;28;103205;-58
2023/03/27 08:52:32;;;;;;;6.90;1.63;;;;;;;8.39;53.18;98846.25;4991693;28;104713;-58
2023/03/27 08:55:12;;;;;;;5.17;1.30;;;;;;;8.68;53.43;98842.63;5002053;27;104342;-58
2023/03/27 08:57:50;;;;;;;3.80;1.50;;;;;;;9.16;53.17;98841.31;4990801;28;103103;-58
2023/03/27 09:00:26;;;;;;;6.40;1.40;;;;;;;7.73;53.99;98853.69;5013979;28;102722;-58
2023/03/27 09:03:15;;;;;;;6.40;2.03;;;;;;;8.45;52.72;98861.63;5006405;28;104072;-58
2023/03/27 09:05:51;;;;;;;4.40;1.47;;;;;;;7.45;53.13;98862.31;5008402;27;104135;-58
2023/03/27 09:08:34;;;;;;;5.17;1.40;;;;;;;7.15;55.34;98864.06;5006610;27;102649;-59
2023/03/27 09:11:10;;;;;;;4.93;1.50;;;;;;;7.66;54.71;98870.78;4998569;28;104510;-58
2023/03/27 09:13:52;;;;;;;9.30;1.60;;;;;;;7.73;54.54;98871.25;5005627;28;103003;-58
2023/03/27 09:16:26;;;;;;;3.47;1.60;;;;;;;7.75;56.86;98875.47;5010635;27;103201;-60
2023/03/27 09:19:03;;;;;;;6.50;1.60;;;;;;;6.70;54.40;98892.84;5009604;27;103519;-58
2023/03/27 09:21:38;;;;;;;6.03;1.43;;;;;;;6.49;54.48;98888.72;5016324;27;102729;-58
2023/03/27 09:24:17;;;;;;;5.00;1.50;;;;;;;7.23;55.04;98884.66;4991455;28;103417;-58
2023/03/27 09:27:17;;;;;;;3.90;1.10;;;;;;;8.39;52.38;98884.88;5015072;28;103245;-58
2023/03/27 09:30:17;;;;;;;5.67;1.60;;;;;;;7.70;53.52;98882.78;4992997;28;102674;-58
2023/03/27 09:32:57;;;;;;;4.93;1.40;;;;;;;7.76;53.83;98878.97;4987860;28;102838;-58
2023/03/27 09:35:26;;;;;;;4.33;1.30;;;;;;;7.31;53.70;98890.31;5006997;27;103915;-57
2023/03/27 09:37:59;;;;;;;7.47;1.83;;;;;;;8.08;53.95;98899.00;4993650;28;103299;-58
2023/03/27 09:40:33;;;;;;;6.60;1.37;;;;;;;9.08;52.05;98893.69;5002531;27;104629;-57
2023/03/27 09:43:08;;;;;;;5.80;1.60;;;;;;;7.28;52.18;98909.75;4992194;28;103946;-58
2023/03/27 09:45:41;;;;;;;4.77;1.23;;;;;;;7.73;50.42;98908.06;4995929;28;103187;-58
2023/03/27 09:48:14;;;;;;;3.30;1.07;;;;;;;9.62;50.80;98905.13;5004830;28;103085;-60
2023/03/27 09:50:48;;;;;;;5.47;1.40;;;;;;;7.31;53.38;98917.47;5004959;27;102725;-58
2023/03/27 09:53:56;;;;;;;3.70;1.60;;;;;;;8.03;52.35;98917.66;4998792;28;103802;-58
2023/03/27 09:56:28;;;;;;;6.27;1.80;;;;;;;7.19;51.43;98927.78;5006366;27;105113;-58
2023/03/27 09:58:57;;;;;;;3.43;1.73;;;;;;;7.85;53.53;98928.41;5007055;28;103162;-58
2023/03/27 10:01:33;;;;;;;6.83;1.83;;;;;;;8.28;51.46;98922.34;5008170;27;102905;-58
2023/03/27 10:04:15;;;;;;;5.17;1.20;;;;;;;8.81;50.20;98921.78;4995348;28;104246;-58
2023/03/27 10:06:48;;;;;;;5.43;1.57;;;;;;;8.74;50.99;98923.06;4992871;28;103290;-58
2023/03/27 10:09:25;;;;;;;5.40;1.47;;;;;;;8.32;49.65;98921.25;4988837;28;103216;-58
2023/03/27 10:12:08;;;;;;;4.00;1.50;;;;;;;8.65;50.36;98929.75;4995218;28;103094;-58
2023/03/27 10:14:40;;;;;;;5.20;1.87;;;;;;;8.61;50.55;98924.78;4994402;28;102711;-58
2023/03/27 10:17:22;;;;;;;7.00;1.90;;;;;;;9.54;48.37;98922.41;5014572;28;102993;-58
2023/03/27 10:20:03;;;;;;;6.97;1.57;;;;;;;9.12;49.99;98928.63;4992049;28;103233;-57
2023/03/27 10:22:38;;;;;;;3.47;1.30;;;;;;;9.45;48.50;98931.75;4993842;28;102746;-58
2023/03/27 10:25:17;;;;;;;3.53;1.73;;;;;;;8.84;50.25;98936.53;4995646;28;103150;-58
2023/03/27 10:27:54;;;;;;;6.47;1.33;;;;;;;9.68;48.19;98936.41;4995159;28;103365;-58
2023/03/27 10:30:34;;;;;;;4.23;1.23;;;;;;;10.57;47.80;98932.19;5013476;28;105266;-58
2023/03/27 10:33:32;;;;;;;4.83;1.70;;;;;;;7.81;45.68;98953.19;4993665;28;102788;-60
2023/03/27 10:36:20;;;;;;;5.50;1.57;;;;;;;8.14;45.18;98943.34;5004514;28;102812;-58
2023/03/27 10:38:56;;;;;;;2.93;1.50;;;;;;;9.89;45.92;98934.97;5002646;27;103537;-58
2023/03/27 10:41:42;;;;;;;4.10;1.47;;;;;;;8.93;47.90;98949.97;4994264;28;103351;-59
2023/03/27 10:44:16;;;;;;;3.83;1.40;;;;;;;9.31;47.95;98942.31;4994530;28;104524;-58
2023/03/27 10:46:52;;;;;;;3.47;1.30;;;;;;;11.02;46.17;98942.19;5005856;28;103079;-58
2023/03/27 10:49:35;;;;;;;5.13;1.07;;;;;;;10.21;46.53;98951.38;4995211;28;103151;-58
2023/03/27 10:52:16;;;;;;;4.10;1.70;;;;;;;9.19;44.98;98949.22;4995064;28;103196;-58
2023/03/27 10:55:18;;;;;;;3.97;1.20;;;;;;;9.25;46.18;98954.09;5011404;28;102724;-58
2023/03/27 10:57:53;;;;;;;3.90;1.23;;;;;;;8.43;44.41;98960.94;5009508;28;102862;-58
2023/03/27 11:00:37;;;;;;;5.77;1.53;;;;;;;8.14;46.11;98959.13;4992352;28;103338;-59
2023/03/27 11:03:16;;;;;;;5.00;1.23;;;;;;;8.32;45.41;98957.25;4996625;28;103223;-67
2023/03/27 11:06:03;;;;;;;4.57;1.40;;;;;;;8.54;45.86;98950.63;5015845;27;102903;-68
2023/03/27 11:08:46;;;;;;;7.73;1.43;;;;;;;8.58;46.36;98952.13;4996178;28;102824;-67
2023/03/27 11:11:21;;;;;;;5.10;1.40;;;;;;;8.53;48.06;98962.06;5011540;27;104769;-68
2023/03/27 11:13:54;;;;;;;3.13;1.50;;;;;;;8.51;47.88;98966.59;4989677;28;103377;-68
2023/03/27 11:16:25;;;;;;;4.77;1.00;;;;;;;8.23;46.86;98969.13;4987799;28;102881;-68
2023/03/27 11:19:26;;;;;;;3.70;1.20;;;;;;;8.60;46.76;98971.31;5008432;28;104024;-68
2023/03/27 11:22:28;;;;;;;4.47;1.07;;;;;;;10.29;45.09;98966.69;5005254;27;103168;-68
2023/03/27 11:25:04;;;;;;;5.10;1.37;;;;;;;10.67;43.44;98964.06;5008735;28;103370;-68
2023/03/27 11:27:38;;;;;;;2.40;0.93;;;;;;;8.96;44.87;98977.91;4985913;28;103846;-68
2023/03/27 11:30:31;;;;;;;5.70;1.13;;;;;;;8.87;45.42;98989.03;4991760;28;104128;-68
2023/03/27 11:33:09;;;;;;;6.37;1.70;;;;;;;10.38;45.94;98984.56;5005340;28;104330;-68
2023/03/27 11:35:47;;;;;;;4.33;1.40;;;;;;;10.07;44.87;98982.22;5010768;27;103256;-68
2023/03/27 11:38:45;;;;;;;4.50;1.23;;;;;;;10.06;46.68;98988.44;4988751;28;103274;-67
2023/03/27 11:41:15;;;;;;;3.27;1.67;;;;;;;9.55;46.26;98993.50;4991282;28;104019;-67
2023/03/27 11:43:43;;;;;;;2.33;1.07;;;;;;;9.94;44.54;98991.91;5006824;27;103467;-66
2023/03/27 11:46:52;;;;;;;4.07;1.20;;;;;;;10.90;43.99;98988.00;5007465;27;103159;-67
2023/03/27 11:50:06;;;;;;;3.23;1.20;;;;;;;11.65;42.31;98983.53;4993954;27;102829;-67
2023/03/27 11:52:52;;;;;;;2.80;1.10;;;;;;;9.80;42.42;98998.91;5013943;28;105782;-66
2023/03/27 11:55:57;;;;;;;5.33;1.60;;;;;;;11.40;43.33;98991.53;4989477;28;103981;-65
2023/03/27 11:58:32;;;;;;;4.40;1.40;;;;;;;10.87;43.69;98988.19;5014449;27;105167;-67
2023/03/27 12:01:08;;;;;;;4.23;1.30;;;;;;;10.17;43.37;98991.25;5011059;27;102763;-67
2023/03/27 12:03:59;;;;;;;4.57;1.10;;;;;;;10.01;43.26;98987.91;4993964;28;102931;-66
2023/03/27 12:06:50;;;;;;;4.30;1.17;;;;;;;11.04;42.08;98993.16;4995405;28;104298;-67
2023/03/27 12:09:40;;;;;;;4.03;1.40;;;;;;;9.32;43.50;98996.72;4994504;28;104113;-66
2023/03/27 12:12:59;;;;;;;1.97;1.00;;;;;;;10.09;45.82;98989.09;5009912;27;102657;-66
2023/03/27 12:15:41;;;;;;;1.70;1.07;;;;;;;10.82;41.96;98994.75;5009091;27;103021;-66
2023/03/27 12:18:23;;;;;;;2.57;0.90;;;;;;;10.68;42.69;98994.84;4988396;28;103380;-67